createdAt,value
2018-09-02T00:00:45.952Z,16.71
2018-09-02T00:03:49.282Z,16.69
2018-09-02T00:06:52.597Z,16.63
2018-09-02T00:09:55.866Z,16.66
2018-09-02T00:12:59.400Z,16.72
2018-09-02T00:16:02.671Z,16.71
2018-09-02T00:19:06.612Z,16.62
2018-09-02T00:22:09.880Z,16.58
2018-09-02T00:25:13.074Z,16.52
2018-09-02T00:28:16.372Z,16.50
2018-09-02T00:31:19.677Z,16.46
2018-09-02T00:34:23.019Z,16.40
2018-09-02T00:37:26.395Z,16.29
2018-09-02T00:40:29.685Z,16.19
2018-09-02T00:43:32.959Z,16.21
2018-09-02T00:46:36.700Z,16.22
2018-09-02T00:49:39.970Z,16.26
2018-09-02T00:52:43.277Z,16.34
2018-09-02T00:55:47.587Z,16.41
2018-09-02T00:58:50.883Z,16.41
2018-09-02T01:01:54.087Z,16.45
2018-09-02T01:04:57.402Z,16.57
2018-09-02T01:08:00.699Z,16.61
2018-09-02T01:11:03.962Z,16.65
2018-09-02T01:14:07.851Z,16.65
2018-09-02T01:17:11.078Z,16.67
2018-09-02T01:20:15.427Z,16.71
2018-09-02T01:23:18.834Z,16.78
2018-09-02T01:26:22.063Z,16.75
2018-09-02T01:29:25.372Z,16.78
2018-09-02T01:32:28.688Z,16.79
2018-09-02T01:35:33.445Z,16.82
2018-09-02T01:38:38.851Z,16.76
2018-09-02T01:41:42.070Z,16.81
2018-09-02T01:44:45.364Z,16.85
2018-09-02T01:47:48.785Z,16.86
2018-09-02T01:50:52.061Z,16.87
2018-09-02T01:53:55.272Z,16.88
2018-09-02T01:56:58.574Z,16.90
2018-09-02T02:00:01.728Z,16.89
2018-09-02T02:03:04.942Z,16.87
2018-09-02T02:06:09.255Z,16.79
2018-09-02T02:09:12.609Z,16.79
2018-09-02T02:12:15.856Z,16.90
2018-09-02T02:15:19.255Z,16.94
2018-09-02T02:18:22.547Z,16.89
2018-09-02T02:21:25.848Z,16.93
2018-09-02T02:24:29.280Z,16.97
2018-09-02T02:27:32.551Z,16.90
2018-09-02T02:30:35.951Z,16.87
2018-09-02T02:33:40.222Z,16.94
2018-09-02T02:36:43.467Z,16.99
2018-09-02T02:39:46.732Z,16.99
2018-09-02T02:42:50.076Z,16.95
2018-09-02T02:45:53.348Z,16.94
2018-09-02T02:48:56.579Z,16.90
2018-09-02T02:51:59.844Z,16.87
2018-09-02T02:55:03.141Z,16.91
2018-09-02T02:58:06.392Z,16.90
2018-09-02T03:01:10.645Z,16.90
2018-09-02T03:04:13.977Z,16.87
2018-09-02T03:07:17.322Z,16.76
2018-09-02T03:10:20.660Z,16.77
2018-09-02T03:13:24.017Z,16.72
2018-09-02T03:16:27.247Z,16.67
2018-09-02T03:19:30.599Z,16.69
2018-09-02T03:22:34.075Z,16.69
2018-09-02T03:25:37.787Z,16.70
2018-09-02T03:28:41.118Z,16.69
2018-09-02T03:31:44.372Z,16.59
2018-09-02T03:34:47.731Z,16.56
2018-09-02T03:37:51.061Z,16.57
2018-09-02T03:40:54.374Z,16.43
2018-09-02T03:43:57.632Z,16.36
2018-09-02T03:47:00.991Z,16.37
2018-09-02T03:50:04.260Z,16.27
2018-09-02T03:53:08.155Z,16.28
2018-09-02T03:56:11.550Z,16.23
2018-09-02T03:59:14.847Z,16.24
2018-09-02T04:02:18.144Z,16.24
2018-09-02T04:05:23.517Z,16.25
2018-09-02T04:08:26.798Z,16.28
2018-09-02T04:11:30.222Z,16.30
2018-09-02T04:14:33.487Z,16.38
2018-09-02T04:17:36.908Z,16.37
2018-09-02T04:20:41.196Z,16.33
2018-09-02T04:23:44.514Z,16.35
2018-09-02T04:26:47.872Z,16.34
2018-09-02T04:29:51.087Z,16.35
2018-09-02T04:32:54.422Z,16.40
2018-09-02T04:35:57.664Z,16.39
2018-09-02T04:39:00.881Z,16.38
2018-09-02T04:42:04.085Z,16.33
2018-09-02T04:45:08.275Z,16.32
2018-09-02T04:48:11.507Z,16.28
2018-09-02T04:51:14.693Z,16.30
2018-09-02T04:54:18.049Z,16.31
2018-09-02T04:57:21.285Z,16.30
2018-09-02T05:00:24.615Z,16.26
2018-09-02T05:03:27.803Z,16.25
2018-09-02T05:06:31.071Z,16.31
2018-09-02T05:09:34.348Z,16.42
2018-09-02T05:12:37.692Z,16.47
2018-09-02T05:15:41.079Z,16.49
2018-09-02T05:18:44.403Z,16.56
2018-09-02T05:21:47.720Z,16.49
2018-09-02T05:24:51.996Z,16.48
2018-09-02T05:27:55.290Z,16.54
2018-09-02T05:30:58.591Z,16.58
2018-09-02T05:34:01.879Z,16.63
2018-09-02T05:37:05.294Z,16.64
2018-09-02T05:40:09.635Z,16.63
2018-09-02T05:43:12.906Z,16.54
2018-09-02T05:46:16.215Z,16.63
2018-09-02T05:49:20.647Z,16.73
2018-09-02T05:52:23.899Z,16.81
2018-09-02T05:55:27.097Z,16.83
2018-09-02T05:58:30.529Z,16.79
2018-09-02T06:01:33.803Z,16.75
2018-09-02T06:04:37.091Z,16.79
2018-09-02T06:07:41.445Z,16.83
2018-09-02T06:10:44.732Z,16.80
2018-09-02T06:13:48.257Z,16.83
2018-09-02T06:16:51.531Z,16.87
2018-09-02T06:19:54.818Z,16.89
2018-09-02T06:22:58.133Z,16.91
2018-09-02T06:26:01.415Z,16.98
2018-09-02T06:29:04.707Z,16.98
2018-09-02T06:32:08.004Z,16.95
2018-09-02T06:35:11.532Z,16.93
2018-09-02T06:38:14.907Z,16.94
2018-09-02T06:41:18.178Z,16.87
2018-09-02T06:44:21.392Z,16.83
2018-09-02T06:47:24.724Z,16.85
2018-09-02T06:50:29.009Z,16.80
2018-09-02T06:53:32.312Z,16.84
2018-09-02T06:56:35.683Z,16.91
2018-09-02T06:59:39.354Z,16.94
2018-09-02T07:02:42.851Z,16.92
2018-09-02T07:05:47.140Z,16.97
2018-09-02T07:08:50.453Z,17.01
2018-09-02T07:11:53.750Z,17.08
2018-09-02T07:14:56.934Z,17.13
2018-09-02T07:18:00.360Z,17.22
2018-09-02T07:21:03.634Z,17.29
2018-09-02T07:24:06.861Z,17.34
2018-09-02T07:27:10.787Z,17.37
2018-09-02T07:30:15.415Z,17.46
2018-09-02T07:33:18.689Z,17.56
2018-09-02T07:36:22.002Z,17.59
2018-09-02T07:39:25.316Z,17.74
2018-09-02T07:42:28.585Z,17.89
2018-09-02T07:45:32.939Z,18.00
2018-09-02T07:48:36.217Z,18.17
2018-09-02T07:51:41.962Z,18.29
2018-09-02T07:54:45.294Z,18.32
2018-09-02T07:57:49.547Z,18.36
2018-09-02T08:00:53.589Z,18.38
2018-09-02T08:03:56.830Z,18.37
2018-09-02T08:07:00.142Z,18.39
2018-09-02T08:10:03.435Z,18.42
2018-09-02T08:13:06.585Z,18.48
2018-09-02T08:16:10.464Z,18.40
2018-09-02T08:19:13.747Z,18.44
2018-09-02T08:22:17.073Z,18.45
2018-09-02T08:25:20.231Z,18.51
2018-09-02T08:28:24.587Z,18.54
2018-09-02T08:31:27.879Z,18.55
2018-09-02T08:34:31.186Z,18.60
2018-09-02T08:37:34.510Z,18.61
2018-09-02T08:40:37.767Z,18.65
2018-09-02T08:43:41.091Z,18.67
2018-09-02T08:46:44.285Z,18.69
2018-09-02T08:49:48.567Z,18.72
2018-09-02T08:52:51.850Z,18.82
2018-09-02T08:55:56.254Z,18.89
2018-09-02T08:58:59.497Z,18.95
2018-09-02T09:02:03.158Z,19.00
2018-09-02T09:05:06.430Z,18.99
2018-09-02T09:08:10.252Z,19.05
2018-09-02T09:11:13.380Z,19.08
2018-09-02T09:14:16.531Z,19.03
2018-09-02T09:17:19.782Z,19.03
2018-09-02T09:20:23.151Z,18.98
2018-09-02T09:23:26.467Z,18.90
2018-09-02T09:26:30.826Z,18.92
2018-09-02T09:29:34.134Z,19.00
2018-09-02T09:32:38.856Z,18.96
2018-09-02T09:35:42.115Z,18.97
2018-09-02T09:38:45.281Z,19.04
2018-09-02T09:41:48.667Z,19.08
2018-09-02T09:44:52.533Z,19.15
2018-09-02T09:47:55.699Z,19.15
2018-09-02T09:50:59.011Z,19.07
2018-09-02T09:54:03.654Z,18.88
2018-09-02T09:57:07.121Z,18.97
2018-09-02T10:00:10.331Z,19.02
2018-09-02T10:03:13.568Z,19.10
2018-09-02T10:06:16.863Z,19.26
2018-09-02T10:09:20.143Z,19.27
2018-09-02T10:12:23.372Z,19.34
2018-09-02T10:15:26.726Z,19.37
2018-09-02T10:18:29.907Z,19.35
2018-09-02T10:21:33.480Z,19.28
2018-09-02T10:24:37.183Z,19.25
2018-09-02T10:27:42.946Z,19.08
2018-09-02T10:30:46.198Z,18.99
2018-09-02T10:33:49.507Z,18.95
2018-09-02T10:36:52.828Z,18.86
2018-09-02T10:39:56.658Z,18.84
2018-09-02T10:43:00.196Z,18.86
2018-09-02T10:46:04.728Z,18.91
2018-09-02T10:49:08.702Z,18.90
2018-09-02T10:52:11.855Z,18.96
2018-09-02T10:55:15.121Z,18.96
2018-09-02T10:58:18.376Z,19.08
2018-09-02T11:01:21.689Z,19.10
2018-09-02T11:04:24.935Z,19.20
2018-09-02T11:07:28.703Z,19.28
2018-09-02T11:10:31.964Z,19.29
2018-09-02T11:13:35.403Z,19.45
2018-09-02T11:16:38.691Z,19.58
2018-09-02T11:19:44.327Z,19.56
2018-09-02T11:22:47.744Z,19.62
2018-09-02T11:25:53.032Z,19.68
2018-09-02T11:28:56.299Z,19.53
2018-09-02T11:31:59.526Z,19.47
2018-09-02T11:35:03.974Z,19.45
2018-09-02T11:38:07.352Z,19.33
2018-09-02T11:41:10.637Z,19.27
2018-09-02T11:44:13.947Z,19.31
2018-09-02T11:47:17.207Z,19.35
2018-09-02T11:50:21.297Z,19.39
2018-09-02T11:53:24.559Z,19.52
2018-09-02T11:56:27.864Z,19.54
2018-09-02T11:59:31.036Z,19.47
2018-09-02T12:02:34.352Z,19.47
2018-09-02T12:05:37.635Z,19.48
2018-09-02T12:08:41.843Z,19.47
2018-09-02T12:11:45.278Z,19.55
2018-09-02T12:14:48.455Z,19.65
2018-09-02T12:17:51.748Z,19.72
2018-09-02T12:20:54.948Z,19.72
2018-09-02T12:23:58.383Z,19.73
2018-09-02T12:27:01.859Z,19.72
2018-09-02T12:30:05.131Z,19.63
2018-09-02T12:33:08.295Z,19.67
2018-09-02T12:36:11.743Z,19.67
2018-09-02T12:39:15.057Z,19.65
2018-09-02T12:42:18.490Z,19.66
2018-09-02T12:45:21.780Z,19.72
2018-09-02T12:48:26.101Z,19.73
2018-09-02T12:51:29.333Z,19.73
2018-09-02T12:54:33.627Z,19.74
2018-09-02T12:57:37.283Z,19.82
2018-09-02T13:00:41.226Z,19.82
2018-09-02T13:03:44.466Z,19.78
2018-09-02T13:06:47.792Z,19.78
2018-09-02T13:09:51.066Z,19.84
2018-09-02T13:12:54.292Z,19.84
2018-09-02T13:15:57.593Z,19.90
2018-09-02T13:19:00.933Z,19.90
2018-09-02T13:22:04.047Z,19.84
2018-09-02T13:25:07.372Z,19.87
2018-09-02T13:28:11.639Z,19.87
2018-09-02T13:31:14.891Z,19.92
2018-09-02T13:34:18.174Z,19.93
2018-09-02T13:37:21.465Z,19.92
2018-09-02T13:40:24.822Z,19.92
2018-09-02T13:43:28.083Z,19.89
2018-09-02T13:46:31.361Z,19.93
2018-09-02T13:49:34.579Z,19.90
2018-09-02T13:52:37.879Z,19.94
2018-09-02T13:55:41.894Z,19.89
2018-09-02T13:58:47.253Z,19.90
2018-09-02T14:01:50.495Z,19.86
2018-09-02T14:04:53.824Z,19.86
2018-09-02T14:07:57.354Z,19.86
2018-09-02T14:11:00.547Z,19.88
2018-09-02T14:14:03.830Z,19.86
2018-09-02T14:17:07.146Z,19.88
2018-09-02T14:20:10.799Z,19.82
2018-09-02T14:23:14.152Z,19.77
2018-09-02T14:26:18.156Z,19.69
2018-09-02T14:29:21.435Z,19.60
2018-09-02T14:32:24.759Z,19.57
2018-09-02T14:35:28.053Z,19.58
2018-09-02T14:38:31.435Z,19.59
2018-09-02T14:41:34.726Z,19.64
2018-09-02T14:44:38.012Z,19.64
2018-09-02T14:47:42.369Z,19.67
2018-09-02T14:50:45.706Z,19.67
2018-09-02T14:53:48.976Z,19.66
2018-09-02T14:56:52.182Z,19.61
2018-09-02T14:59:55.432Z,19.53
2018-09-02T15:02:58.739Z,19.54
2018-09-02T15:06:02.364Z,19.55
2018-09-02T15:09:07.729Z,19.58
2018-09-02T15:12:11.924Z,19.54
2018-09-02T15:15:15.204Z,19.59
2018-09-02T15:18:18.627Z,19.59
2018-09-02T15:21:21.971Z,19.67
2018-09-02T15:24:25.312Z,19.72
2018-09-02T15:27:28.590Z,19.65
2018-09-02T15:30:31.875Z,19.58
2018-09-02T15:33:35.223Z,19.57
2018-09-02T15:36:38.507Z,19.66
2018-09-02T15:39:42.628Z,19.63
2018-09-02T15:42:45.945Z,19.60
2018-09-02T15:45:49.163Z,19.38
2018-09-02T15:48:52.523Z,19.44
2018-09-02T15:51:55.790Z,19.39
2018-09-02T15:54:59.103Z,19.40
2018-09-02T15:58:02.518Z,19.38
2018-09-02T16:01:05.995Z,19.34
2018-09-02T16:04:10.028Z,19.33
2018-09-02T16:07:13.295Z,19.35
2018-09-02T16:10:16.579Z,19.32
2018-09-02T16:13:19.817Z,19.25
2018-09-02T16:16:23.145Z,19.21
2018-09-02T16:19:26.484Z,19.18
2018-09-02T16:22:29.862Z,19.28
2018-09-02T16:25:33.218Z,19.33
2018-09-02T16:28:36.604Z,19.32
2018-09-02T16:31:40.434Z,19.30
2018-09-02T16:34:43.910Z,19.22
2018-09-02T16:37:47.226Z,19.16
2018-09-02T16:40:50.723Z,19.19
2018-09-02T16:43:54.028Z,19.24
2018-09-02T16:46:57.275Z,19.27
2018-09-02T16:50:00.590Z,19.25
2018-09-02T16:53:04.026Z,19.26
2018-09-02T16:56:07.327Z,19.25
2018-09-02T16:59:11.567Z,19.28
2018-09-02T17:02:14.991Z,19.19
2018-09-02T17:05:23.227Z,19.17
2018-09-02T17:08:26.551Z,19.10
2018-09-02T17:11:29.926Z,19.09
2018-09-02T17:14:33.138Z,19.06
2018-09-02T17:17:36.440Z,19.06
2018-09-02T17:20:42.967Z,19.01
2018-09-02T17:23:46.276Z,19.00
2018-09-02T17:26:49.715Z,19.01
2018-09-02T17:29:52.988Z,18.98
2018-09-02T17:32:56.333Z,19.02
2018-09-02T17:35:59.603Z,19.05
2018-09-02T17:39:03.119Z,19.04
2018-09-02T17:42:06.381Z,18.99
2018-09-02T17:45:09.740Z,18.98
2018-09-02T17:48:14.136Z,18.95
2018-09-02T17:51:17.425Z,18.97
2018-09-02T17:54:20.714Z,18.99
2018-09-02T17:57:24.012Z,18.92
2018-09-02T18:00:33.612Z,18.90
2018-09-02T18:03:36.784Z,18.88
2018-09-02T18:06:40.157Z,18.86
2018-09-02T18:09:44.020Z,18.87
2018-09-02T18:12:49.320Z,18.85
2018-09-02T18:15:54.826Z,18.83
2018-09-02T18:18:58.057Z,18.82
2018-09-02T18:22:01.511Z,18.85
2018-09-02T18:25:04.887Z,18.86
2018-09-02T18:28:10.699Z,18.85
2018-09-02T18:31:14.063Z,18.87
2018-09-02T18:34:17.347Z,18.89
2018-09-02T18:37:20.556Z,18.89
2018-09-02T18:40:23.839Z,18.83
2018-09-02T18:43:27.176Z,18.80
2018-09-02T18:46:30.463Z,18.80
2018-09-02T18:49:33.747Z,18.80
2018-09-02T18:52:37.091Z,18.88
2018-09-02T18:55:40.251Z,18.89
2018-09-02T18:58:45.584Z,18.87
2018-09-02T19:01:48.895Z,18.81
2018-09-02T19:04:52.194Z,18.80
2018-09-02T19:07:55.391Z,18.81
2018-09-02T19:10:58.691Z,18.82
2018-09-02T19:14:02.957Z,18.81
2018-09-02T19:17:06.535Z,18.84
2018-09-02T19:20:09.845Z,18.75
2018-09-02T19:23:13.115Z,18.67
2018-09-02T19:26:16.423Z,18.67
2018-09-02T19:29:20.676Z,18.69
2018-09-02T19:32:23.960Z,18.71
2018-09-02T19:35:27.757Z,18.65
2018-09-02T19:38:31.061Z,18.63
2018-09-02T19:41:34.393Z,18.58
2018-09-02T19:44:37.640Z,18.53
2018-09-02T19:47:41.024Z,18.50
2018-09-02T19:50:44.348Z,18.47
2018-09-02T19:53:47.592Z,18.47
2018-09-02T19:56:50.912Z,18.42
2018-09-02T19:59:55.943Z,18.42
2018-09-02T20:02:59.157Z,18.41
2018-09-02T20:06:02.469Z,18.40
2018-09-02T20:09:08.757Z,18.38
2018-09-02T20:12:12.035Z,18.43
2018-09-02T20:15:15.340Z,18.43
2018-09-02T20:18:18.728Z,18.42
2018-09-02T20:21:21.999Z,18.44
2018-09-02T20:24:26.011Z,18.43
2018-09-02T20:27:30.397Z,18.42
2018-09-02T20:30:33.707Z,18.44
2018-09-02T20:33:36.915Z,18.32
2018-09-02T20:36:40.281Z,18.28
2018-09-02T20:39:43.662Z,18.26
2018-09-02T20:42:46.951Z,18.23
2018-09-02T20:45:50.219Z,18.22
2018-09-02T20:48:54.615Z,18.15
2018-09-02T20:51:58.566Z,18.17
2018-09-02T20:55:01.836Z,18.15
2018-09-02T20:58:04.961Z,18.02
2018-09-02T21:01:08.222Z,17.91
2018-09-02T21:04:11.543Z,17.77
2018-09-02T21:07:14.892Z,17.74
2018-09-02T21:10:18.252Z,17.72
2018-09-02T21:13:23.483Z,17.81
2018-09-02T21:16:27.587Z,17.79
2018-09-02T21:19:30.899Z,17.80
2018-09-02T21:22:34.184Z,17.81
2018-09-02T21:25:37.524Z,17.77
2018-09-02T21:28:40.810Z,17.79
2018-09-02T21:31:43.985Z,17.78
2018-09-02T21:34:47.288Z,17.71
2018-09-02T21:37:51.511Z,17.65
2018-09-02T21:40:54.695Z,17.62
2018-09-02T21:43:59.219Z,17.63
2018-09-02T21:47:02.482Z,17.64
2018-09-02T21:50:06.257Z,17.65
2018-09-02T21:53:09.515Z,17.58
2018-09-02T21:56:13.732Z,17.63
2018-09-02T21:59:17.047Z,17.53
2018-09-02T22:02:20.471Z,17.50
2018-09-02T22:05:23.748Z,17.52
2018-09-02T22:08:27.943Z,17.56
2018-09-02T22:11:31.235Z,17.46
2018-09-02T22:14:34.411Z,17.48
2018-09-02T22:17:37.877Z,17.55
2018-09-02T22:20:41.142Z,17.56
2018-09-02T22:23:44.355Z,17.58
2018-09-02T22:26:47.640Z,17.61
2018-09-02T22:29:50.941Z,17.51
2018-09-02T22:32:54.224Z,17.44
2018-09-02T22:35:58.409Z,17.33
2018-09-02T22:39:01.675Z,17.21
2018-09-02T22:42:04.935Z,17.14
2018-09-02T22:45:08.268Z,17.18
2018-09-02T22:48:11.442Z,17.10
2018-09-02T22:51:14.726Z,17.07
2018-09-02T22:54:18.016Z,17.03
2018-09-02T22:57:21.319Z,17.09
2018-09-02T23:00:24.623Z,17.12
2018-09-02T23:03:28.607Z,17.11
2018-09-02T23:06:31.809Z,17.18
2018-09-02T23:09:35.137Z,17.20
2018-09-02T23:12:38.419Z,17.05
2018-09-02T23:15:41.617Z,17.04
2018-09-02T23:18:44.982Z,17.00
2018-09-02T23:21:48.337Z,16.97
2018-09-02T23:24:51.611Z,16.93
2018-09-02T23:27:54.947Z,16.88
2018-09-02T23:30:58.204Z,16.86
2018-09-02T23:34:01.455Z,16.93
2018-09-02T23:37:04.838Z,16.88
2018-09-02T23:40:08.130Z,16.85
2018-09-02T23:43:11.406Z,16.87
2018-09-02T23:46:14.629Z,16.85
2018-09-02T23:49:17.887Z,16.82
2018-09-02T23:52:21.284Z,16.72
2018-09-02T23:55:24.620Z,16.78
2018-09-02T23:58:28.782Z,16.74
